sensor_id;sensor_type;location;lat;lon;timestamp;pressure;altitude;pressure_sealevel;temperature;humidity
68320;BME280;55168;51.120;17.024;2023-02-02T00:00:00;99400;;;2.2;100.0
68320;BME280;55168;51.120;17.024;2023-02-02T00:01:00;99400;;;2.2;100.0
68320;BME280;55168;51.120;17.024;2023-02-02T00:02:00;99390;;;2.2;100.0
68320;BME280;55168;51.120;17.024;2023-02-02T00:03:00;99400;;;2.2;100.0
68320;BME280;55168;51.120;17.024;2023-02-02T00:04:00;99390;;;2.2;100.0
68320;BME280;55168;51.120;17.024;2023-02-02T00:05:00;99390;;;2.2;100.0
68320;BME280;55168;51.120;17.024;2023-02-02T00:06:00;99390;;;2.2;100.0
68320;BME280;55168;51.120;17.024;2023-02-02T00:07:00;99390;;;2.2;100.0
68320;BME280;55168;51.120;17.024;2023-02-02T00:08:00;99390;;;2.2;100.0
68320;BME280;55168;51.120;17.024;2023-02-02T00:09:00;99390;;;2.2;100.0
68320;BME280;55168;51.120;17.024;2023-02-02T00:10:00;99390;;;2.2;100.0
68320;BME280;55168;51.120;17.024;2023-02-02T00:11:00;99390;;;2.2;100.0
68320;BME280;55168;51.120;17.024;2023-02-02T00:12:00;99390;;;2.2;100.0
68320;BME280;55168;51.120;17.024;2023-02-02T00:13:00;99390;;;2.1;100.0
68320;BME280;55168;51.120;17.024;2023-02-02T00:14:00;99390;;;2.1;100.0
68320;BME280;55168;51.120;17.024;2023-02-02T00:15:00;99390;;;2.2;100.0
68320;BME280;55168;51.120;17.024;2023-02-02T00:17:00;99380;;;2.2;100.0
68320;BME280;55168;51.120;17.024;2023-02-02T00:18:00;99380;;;2.2;100.0
68320;BME280;55168;51.120;17.024;2023-02-02T00:19:01;99380;;;2.3;100.0
68320;BME280;55168;51.120;17.024;2023-02-02T00:20:00;99370;;;2.3;100.0
68320;BME280;55168;51.120;17.024;2023-02-02T00:21:00;99370;;;2.3;100.0
68320;BME280;55168;51.120;17.024;2023-02-02T00:22:00;99380;;;2.3;100.0
68320;BME280;55168;51.120;17.024;2023-02-02T00:23:00;99370;;;2.3;100.0
68320;BME280;55168;51.120;17.024;2023-02-02T00:24:00;99380;;;2.3;100.0
68320;BME280;55168;51.120;17.024;2023-02-02T00:25:00;99380;;;2.2;100.0
68320;BME280;55168;51.120;17.024;2023-02-02T00:26:00;99380;;;2.2;100.0
68320;BME280;55168;51.120;17.024;2023-02-02T00:27:00;99380;;;2.3;100.0
68320;BME280;55168;51.120;17.024;2023-02-02T00:28:00;99380;;;2.3;100.0
68320;BME280;55168;51.120;17.024;2023-02-02T00:29:00;99380;;;2.2;100.0
68320;BME280;55168;51.120;17.024;2023-02-02T00:30:00;99380;;;2.2;100.0
68320;BME280;55168;51.120;17.024;2023-02-02T00:31:00;99380;;;2.2;100.0
68320;BME280;55168;51.120;17.024;2023-02-02T00:32:00;99390;;;2.2;100.0
68320;BME280;55168;51.120;17.024;2023-02-02T00:33:00;99390;;;2.3;100.0
68320;BME280;55168;51.120;17.024;2023-02-02T00:34:00;99390;;;2.3;100.0
68320;BME280;55168;51.120;17.024;2023-02-02T00:35:00;99390;;;2.3;100.0
68320;BME280;55168;51.120;17.024;2023-02-02T00:36:00;99390;;;2.3;100.0
68320;BME280;55168;51.120;17.024;2023-02-02T00:37:00;99390;;;2.2;100.0
68320;BME280;55168;51.120;17.024;2023-02-02T00:38:00;99390;;;2.2;100.0
68320;BME280;55168;51.120;17.024;2023-02-02T00:39:00;99390;;;2.3;100.0
68320;BME280;55168;51.120;17.024;2023-02-02T00:40:00;99400;;;2.3;100.0
68320;BME280;55168;51.120;17.024;2023-02-02T00:41:00;99410;;;2.3;100.0
68320;BME280;55168;51.120;17.024;2023-02-02T00:42:00;99410;;;2.3;100.0
68320;BME280;55168;51.120;17.024;2023-02-02T00:43:00;99410;;;2.2;100.0
68320;BME280;55168;51.120;17.024;2023-02-02T00:44:00;99410;;;2.2;100.0
68320;BME280;55168;51.120;17.024;2023-02-02T00:45:00;99410;;;2.3;100.0
68320;BME280;55168;51.120;17.024;2023-02-02T00:46:00;99400;;;2.3;100.0
68320;BME280;55168;51.120;17.024;2023-02-02T00:47:00;99400;;;2.3;100.0
68320;BME280;55168;51.120;17.024;2023-02-02T00:48:00;99400;;;2.3;100.0
68320;BME280;55168;51.120;17.024;2023-02-02T00:49:00;99400;;;2.2;100.0
68320;BME280;55168;51.120;17.024;2023-02-02T00:50:00;99400;;;2.2;100.0
68320;BME280;55168;51.120;17.024;2023-02-02T00:51:00;99400;;;2.2;100.0
68320;BME280;55168;51.120;17.024;2023-02-02T00:52:00;99400;;;2.2;100.0
68320;BME280;55168;51.120;17.024;2023-02-02T00:53:00;99400;;;2.2;100.0
68320;BME280;55168;51.120;17.024;2023-02-02T00:54:00;99400;;;2.2;100.0
68320;BME280;55168;51.120;17.024;2023-02-02T00:55:00;99400;;;2.2;100.0
68320;BME280;55168;51.120;17.024;2023-02-02T00:56:00;99400;;;2.2;100.0
68320;BME280;55168;51.120;17.024;2023-02-02T00:57:00;99400;;;2.2;100.0
68320;BME280;55168;51.120;17.024;2023-02-02T00:58:00;99400;;;2.2;100.0
68320;BME280;55168;51.120;17.024;2023-02-02T00:59:00;99400;;;2.2;100.0
68320;BME280;55168;51.120;17.024;2023-02-02T01:00:00;99400;;;2.2;100.0
68320;BME280;55168;51.120;17.024;2023-02-02T01:01:00;99400;;;2.3;100.0
68320;BME280;55168;51.120;17.024;2023-02-02T01:02:00;99400;;;2.3;100.0
68320;BME280;55168;51.120;17.024;2023-02-02T01:03:00;99400;;;2.3;100.0
68320;BME280;55168;51.120;17.024;2023-02-02T01:04:00;99400;;;2.3;100.0
68320;BME280;55168;51.120;17.024;2023-02-02T01:05:00;99400;;;2.3;100.0
68320;BME280;55168;51.120;17.024;2023-02-02T01:06:00;99400;;;2.3;100.0
68320;BME280;55168;51.120;17.024;2023-02-02T01:07:00;99400;;;2.3;100.0
68320;BME280;55168;51.120;17.024;2023-02-02T01:08:00;99400;;;2.3;100.0
68320;BME280;55168;51.120;17.024;2023-02-02T01:09:00;99400;;;2.3;100.0
68320;BME280;55168;51.120;17.024;2023-02-02T01:10:00;99400;;;2.3;100.0
68320;BME280;55168;51.120;17.024;2023-02-02T01:11:00;99390;;;2.3;100.0
68320;BME280;55168;51.120;17.024;2023-02-02T01:12:00;99400;;;2.3;100.0
68320;BME280;55168;51.120;17.024;2023-02-02T01:13:00;99400;;;2.3;100.0
68320;BME280;55168;51.120;17.024;2023-02-02T01:14:00;99400;;;2.3;100.0
68320;BME280;55168;51.120;17.024;2023-02-02T01:15:00;99400;;;2.3;100.0
68320;BME280;55168;51.120;17.024;2023-02-02T01:16:00;99400;;;2.3;100.0
68320;BME280;55168;51.120;17.024;2023-02-02T01:17:00;99400;;;2.3;100.0
68320;BME280;55168;51.120;17.024;2023-02-02T01:18:00;99410;;;2.3;100.0
68320;BME280;55168;51.120;17.024;2023-02-02T01:19:00;99400;;;2.3;100.0
68320;BME280;55168;51.120;17.024;2023-02-02T01:20:00;99410;;;2.3;100.0
68320;BME280;55168;51.120;17.024;2023-02-02T01:21:01;99410;;;2.3;100.0
68320;BME280;55168;51.120;17.024;2023-02-02T01:22:00;99400;;;2.3;100.0
68320;BME280;55168;51.120;17.024;2023-02-02T01:23:00;99400;;;2.4;100.0
68320;BME280;55168;51.120;17.024;2023-02-02T01:24:00;99400;;;2.4;100.0
68320;BME280;55168;51.120;17.024;2023-02-02T01:25:00;99400;;;2.4;100.0
68320;BME280;55168;51.120;17.024;2023-02-02T01:26:01;99400;;;2.4;100.0
68320;BME280;55168;51.120;17.024;2023-02-02T01:27:00;99400;;;2.3;100.0
68320;BME280;55168;51.120;17.024;2023-02-02T01:28:00;99410;;;2.4;100.0
68320;BME280;55168;51.120;17.024;2023-02-02T01:29:00;99410;;;2.4;100.0
68320;BME280;55168;51.120;17.024;2023-02-02T01:30:00;99410;;;2.4;100.0
68320;BME280;55168;51.120;17.024;2023-02-02T01:31:04;99400;;;2.4;100.0
68320;BME280;55168;51.120;17.024;2023-02-02T01:32:00;99410;;;2.4;100.0
68320;BME280;55168;51.120;17.024;2023-02-02T01:33:00;99410;;;2.4;100.0
68320;BME280;55168;51.120;17.024;2023-02-02T01:34:00;99400;;;2.4;100.0
68320;BME280;55168;51.120;17.024;2023-02-02T01:35:00;99400;;;2.4;100.0
68320;BME280;55168;51.120;17.024;2023-02-02T01:36:02;99410;;;2.4;100.0
68320;BME280;55168;51.120;17.024;2023-02-02T01:37:00;99400;;;2.4;100.0
68320;BME280;55168;51.120;17.024;2023-02-02T01:38:00;99400;;;2.5;100.0
68320;BME280;55168;51.120;17.024;2023-02-02T01:39:00;99410;;;2.4;100.0
68320;BME280;55168;51.120;17.024;2023-02-02T01:40:00;99400;;;2.5;100.0
68320;BME280;55168;51.120;17.024;2023-02-02T01:41:00;99410;;;2.5;100.0
68320;BME280;55168;51.120;17.024;2023-02-02T01:42:00;99410;;;2.5;100.0
68320;BME280;55168;51.120;17.024;2023-02-02T01:43:00;99400;;;2.5;100.0
68320;BME280;55168;51.120;17.024;2023-02-02T01:44:01;99400;;;2.5;100.0
68320;BME280;55168;51.120;17.024;2023-02-02T01:45:03;99410;;;2.5;100.0
68320;BME280;55168;51.120;17.024;2023-02-02T01:46:00;99410;;;2.5;100.0
68320;BME280;55168;51.120;17.024;2023-02-02T01:47:00;99400;;;2.5;100.0
68320;BME280;55168;51.120;17.024;2023-02-02T01:48:00;99410;;;2.5;100.0
68320;BME280;55168;51.120;17.024;2023-02-02T01:49:16;99400;;;2.5;100.0
68320;BME280;55168;51.120;17.024;2023-02-02T01:50:00;99400;;;2.5;100.0
68320;BME280;55168;51.120;17.024;2023-02-02T01:51:01;99400;;;2.4;100.0
68320;BME280;55168;51.120;17.024;2023-02-02T01:52:00;99400;;;2.5;100.0
68320;BME280;55168;51.120;17.024;2023-02-02T01:53:00;99400;;;2.5;100.0
68320;BME280;55168;51.120;17.024;2023-02-02T01:54:00;99400;;;2.5;100.0
68320;BME280;55168;51.120;17.024;2023-02-02T01:55:03;99400;;;2.5;100.0
68320;BME280;55168;51.120;17.024;2023-02-02T01:56:00;99400;;;2.5;100.0
68320;BME280;55168;51.120;17.024;2023-02-02T01:57:02;99400;;;2.5;100.0
68320;BME280;55168;51.120;17.024;2023-02-02T01:58:03;99400;;;2.5;100.0
68320;BME280;55168;51.120;17.024;2023-02-02T01:59:00;99400;;;2.5;100.0
68320;BME280;55168;51.120;17.024;2023-02-02T02:00:01;99400;;;2.5;100.0
68320;BME280;55168;51.120;17.024;2023-02-02T02:01:00;99400;;;2.5;100.0
68320;BME280;55168;51.120;17.024;2023-02-02T02:02:00;99400;;;2.5;100.0
68320;BME280;55168;51.120;17.024;2023-02-02T02:03:01;99400;;;2.5;100.0
68320;BME280;55168;51.120;17.024;2023-02-02T02:04:00;99400;;;2.5;100.0
68320;BME280;55168;51.120;17.024;2023-02-02T02:05:00;99400;;;2.5;100.0
68320;BME280;55168;51.120;17.024;2023-02-02T02:07:00;99390;;;2.5;100.0
68320;BME280;55168;51.120;17.024;2023-02-02T02:08:06;99400;;;2.5;100.0
68320;BME280;55168;51.120;17.024;2023-02-02T02:09:01;99400;;;2.5;100.0
68320;BME280;55168;51.120;17.024;2023-02-02T02:10:00;99400;;;2.5;100.0
68320;BME280;55168;51.120;17.024;2023-02-02T02:11:00;99400;;;2.5;100.0
68320;BME280;55168;51.120;17.024;2023-02-02T02:12:00;99400;;;2.5;100.0
68320;BME280;55168;51.120;17.024;2023-02-02T02:13:00;99390;;;2.5;100.0
68320;BME280;55168;51.120;17.024;2023-02-02T02:14:02;99400;;;2.5;100.0
68320;BME280;55168;51.120;17.024;2023-02-02T02:15:00;99390;;;2.6;100.0
68320;BME280;55168;51.120;17.024;2023-02-02T02:16:03;99390;;;2.5;100.0
68320;BME280;55168;51.120;17.024;2023-02-02T02:17:08;99390;;;2.6;100.0
68320;BME280;55168;51.120;17.024;2023-02-02T02:18:06;99390;;;2.6;100.0
68320;BME280;55168;51.120;17.024;2023-02-02T02:19:09;99390;;;2.6;100.0
68320;BME280;55168;51.120;17.024;2023-02-02T02:20:14;99390;;;2.6;100.0
68320;BME280;55168;51.120;17.024;2023-02-02T02:22:02;99390;;;2.6;100.0
68320;BME280;55168;51.120;17.024;2023-02-02T02:25:05;99380;;;2.6;100.0
68320;BME280;55168;51.120;17.024;2023-02-02T02:29:04;99380;;;2.6;100.0
68320;BME280;55168;51.120;17.024;2023-02-02T02:31:04;99380;;;2.6;100.0
68320;BME280;55168;51.120;17.024;2023-02-02T02:34:17;99370;;;2.6;100.0
68320;BME280;55168;51.120;17.024;2023-02-02T02:35:09;99370;;;2.6;100.0
68320;BME280;55168;51.120;17.024;2023-02-02T02:36:07;99370;;;2.6;100.0
68320;BME280;55168;51.120;17.024;2023-02-02T02:37:17;99380;;;2.6;100.0
68320;BME280;55168;51.120;17.024;2023-02-02T02:38:03;99370;;;2.6;100.0
68320;BME280;55168;51.120;17.024;2023-02-02T02:39:05;99370;;;2.6;100.0
68320;BME280;55168;51.120;17.024;2023-02-02T02:40:02;99370;;;2.6;100.0
68320;BME280;55168;51.120;17.024;2023-02-02T02:41:01;99370;;;2.6;100.0
68320;BME280;55168;51.120;17.024;2023-02-02T02:42:01;99370;;;2.6;100.0
68320;BME280;55168;51.120;17.024;2023-02-02T02:43:01;99380;;;2.6;100.0
68320;BME280;55168;51.120;17.024;2023-02-02T02:44:01;99360;;;2.6;100.0
68320;BME280;55168;51.120;17.024;2023-02-02T02:45:00;99370;;;2.6;100.0
68320;BME280;55168;51.120;17.024;2023-02-02T02:46:00;99370;;;2.6;100.0
68320;BME280;55168;51.120;17.024;2023-02-02T02:47:00;99370;;;2.7;100.0
68320;BME280;55168;51.120;17.024;2023-02-02T02:48:01;99380;;;2.7;100.0
68320;BME280;55168;51.120;17.024;2023-02-02T02:49:00;99370;;;2.7;100.0
68320;BME280;55168;51.120;17.024;2023-02-02T02:50:00;99370;;;2.7;100.0
68320;BME280;55168;51.120;17.024;2023-02-02T02:51:08;99370;;;2.7;100.0
68320;BME280;55168;51.120;17.024;2023-02-02T02:52:00;99370;;;2.7;100.0
68320;BME280;55168;51.120;17.024;2023-02-02T02:53:10;99370;;;2.7;100.0
68320;BME280;55168;51.120;17.024;2023-02-02T02:54:00;99370;;;2.8;100.0
68320;BME280;55168;51.120;17.024;2023-02-02T02:55:00;99360;;;2.7;100.0
68320;BME280;55168;51.120;17.024;2023-02-02T02:56:04;99360;;;2.7;100.0
68320;BME280;55168;51.120;17.024;2023-02-02T02:58:03;99360;;;2.7;100.0
68320;BME280;55168;51.120;17.024;2023-02-02T03:00:18;99360;;;2.7;100.0
68320;BME280;55168;51.120;17.024;2023-02-02T03:04:04;99360;;;2.8;100.0
68320;BME280;55168;51.120;17.024;2023-02-02T03:05:05;99360;;;2.8;100.0
68320;BME280;55168;51.120;17.024;2023-02-02T03:06:09;99360;;;2.8;100.0
68320;BME280;55168;51.120;17.024;2023-02-02T03:07:01;99350;;;2.8;100.0
68320;BME280;55168;51.120;17.024;2023-02-02T03:09:02;99350;;;2.8;100.0
68320;BME280;55168;51.120;17.024;2023-02-02T03:10:00;99350;;;2.7;100.0
68320;BME280;55168;51.120;17.024;2023-02-02T03:11:00;99350;;;2.7;100.0
68320;BME280;55168;51.120;17.024;2023-02-02T03:12:00;99350;;;2.7;100.0
68320;BME280;55168;51.120;17.024;2023-02-02T03:13:05;99340;;;2.7;100.0
68320;BME280;55168;51.120;17.024;2023-02-02T03:14:00;99350;;;2.8;100.0
68320;BME280;55168;51.120;17.024;2023-02-02T03:15:03;99350;;;2.8;100.0
68320;BME280;55168;51.120;17.024;2023-02-02T03:16:00;99340;;;2.8;100.0
68320;BME280;55168;51.120;17.024;2023-02-02T03:17:00;99350;;;2.8;100.0
68320;BME280;55168;51.120;17.024;2023-02-02T03:18:00;99340;;;2.8;100.0
68320;BME280;55168;51.120;17.024;2023-02-02T03:19:00;99340;;;2.8;100.0
68320;BME280;55168;51.120;17.024;2023-02-02T03:20:00;99350;;;2.8;100.0
68320;BME280;55168;51.120;17.024;2023-02-02T03:21:00;99340;;;2.7;100.0
68320;BME280;55168;51.120;17.024;2023-02-02T03:22:00;99330;;;2.8;100.0
68320;BME280;55168;51.120;17.024;2023-02-02T03:23:00;99330;;;2.8;100.0
68320;BME280;55168;51.120;17.024;2023-02-02T03:24:00;99330;;;2.8;100.0
68320;BME280;55168;51.120;17.024;2023-02-02T03:25:00;99320;;;2.8;100.0
68320;BME280;55168;51.120;17.024;2023-02-02T03:26:00;99330;;;2.8;100.0
68320;BME280;55168;51.120;17.024;2023-02-02T03:27:00;99320;;;2.8;100.0
68320;BME280;55168;51.120;17.024;2023-02-02T03:28:00;99320;;;2.8;100.0
68320;BME280;55168;51.120;17.024;2023-02-02T03:29:00;99310;;;2.8;100.0
68320;BME280;55168;51.120;17.024;2023-02-02T03:30:00;99300;;;2.8;100.0
68320;BME280;55168;51.120;17.024;2023-02-02T03:31:00;99300;;;2.8;100.0
68320;BME280;55168;51.120;17.024;2023-02-02T03:32:00;99300;;;2.8;100.0
68320;BME280;55168;51.120;17.024;2023-02-02T03:33:00;99300;;;2.8;100.0
68320;BME280;55168;51.120;17.024;2023-02-02T03:34:00;99300;;;2.8;100.0
68320;BME280;55168;51.120;17.024;2023-02-02T03:35:00;99300;;;2.8;100.0
68320;BME280;55168;51.120;17.024;2023-02-02T03:36:00;99300;;;2.8;100.0
68320;BME280;55168;51.120;17.024;2023-02-02T03:37:00;99290;;;2.7;100.0
68320;BME280;55168;51.120;17.024;2023-02-02T03:38:00;99290;;;2.8;100.0
68320;BME280;55168;51.120;17.024;2023-02-02T03:39:00;99290;;;2.7;100.0
68320;BME280;55168;51.120;17.024;2023-02-02T03:40:00;99300;;;2.7;100.0
68320;BME280;55168;51.120;17.024;2023-02-02T03:41:00;99290;;;2.7;100.0
68320;BME280;55168;51.120;17.024;2023-02-02T03:42:00;99290;;;2.7;100.0
68320;BME280;55168;51.120;17.024;2023-02-02T03:43:00;99290;;;2.7;100.0
68320;BME280;55168;51.120;17.024;2023-02-02T03:44:00;99290;;;2.7;100.0
68320;BME280;55168;51.120;17.024;2023-02-02T03:45:00;99290;;;2.7;100.0
68320;BME280;55168;51.120;17.024;2023-02-02T03:46:00;99280;;;2.7;100.0
68320;BME280;55168;51.120;17.024;2023-02-02T03:47:00;99280;;;2.7;100.0
68320;BME280;55168;51.120;17.024;2023-02-02T03:48:02;99290;;;2.7;100.0
68320;BME280;55168;51.120;17.024;2023-02-02T03:49:00;99290;;;2.7;100.0
68320;BME280;55168;51.120;17.024;2023-02-02T03:50:00;99270;;;2.8;100.0
68320;BME280;55168;51.120;17.024;2023-02-02T03:51:00;99280;;;2.8;100.0
68320;BME280;55168;51.120;17.024;2023-02-02T03:52:00;99280;;;2.8;100.0
68320;BME280;55168;51.120;17.024;2023-02-02T03:53:00;99280;;;2.8;100.0
68320;BME280;55168;51.120;17.024;2023-02-02T03:54:00;99290;;;2.8;100.0
68320;BME280;55168;51.120;17.024;2023-02-02T03:55:00;99290;;;2.8;100.0
68320;BME280;55168;51.120;17.024;2023-02-02T03:56:00;99280;;;2.8;100.0
68320;BME280;55168;51.120;17.024;2023-02-02T03:57:00;99280;;;2.8;100.0
68320;BME280;55168;51.120;17.024;2023-02-02T03:58:00;99290;;;2.8;100.0
68320;BME280;55168;51.120;17.024;2023-02-02T03:59:00;99280;;;2.8;100.0
68320;BME280;55168;51.120;17.024;2023-02-02T04:00:00;99290;;;2.8;100.0
68320;BME280;55168;51.120;17.024;2023-02-02T04:01:02;99290;;;2.8;100.0
68320;BME280;55168;51.120;17.024;2023-02-02T04:02:00;99280;;;2.8;100.0
68320;BME280;55168;51.120;17.024;2023-02-02T04:03:00;99270;;;2.8;100.0
68320;BME280;55168;51.120;17.024;2023-02-02T04:04:00;99280;;;2.8;100.0
68320;BME280;55168;51.120;17.024;2023-02-02T04:05:00;99290;;;2.8;100.0
68320;BME280;55168;51.120;17.024;2023-02-02T04:06:00;99280;;;2.8;100.0
68320;BME280;55168;51.120;17.024;2023-02-02T04:07:00;99280;;;2.8;100.0
68320;BME280;55168;51.120;17.024;2023-02-02T04:08:00;99280;;;2.8;100.0
68320;BME280;55168;51.120;17.024;2023-02-02T04:09:00;99290;;;2.9;100.0
68320;BME280;55168;51.120;17.024;2023-02-02T04:10:00;99290;;;2.8;100.0
68320;BME280;55168;51.120;17.024;2023-02-02T04:11:00;99280;;;2.8;100.0
68320;BME280;55168;51.120;17.024;2023-02-02T04:12:00;99280;;;2.9;100.0
68320;BME280;55168;51.120;17.024;2023-02-02T04:13:00;99290;;;2.9;100.0
68320;BME280;55168;51.120;17.024;2023-02-02T04:14:00;99280;;;2.9;100.0
68320;BME280;55168;51.120;17.024;2023-02-02T04:15:00;99290;;;2.9;100.0
68320;BME280;55168;51.120;17.024;2023-02-02T04:16:00;99290;;;2.9;100.0
68320;BME280;55168;51.120;17.024;2023-02-02T04:17:00;99290;;;2.9;100.0
68320;BME280;55168;51.120;17.024;2023-02-02T04:18:00;99290;;;2.9;100.0
68320;BME280;55168;51.120;17.024;2023-02-02T04:19:00;99280;;;2.9;100.0
68320;BME280;55168;51.120;17.024;2023-02-02T04:20:00;99290;;;2.9;100.0
68320;BME280;55168;51.120;17.024;2023-02-02T04:21:00;99290;;;2.9;100.0
68320;BME280;55168;51.120;17.024;2023-02-02T04:22:00;99290;;;2.9;100.0
68320;BME280;55168;51.120;17.024;2023-02-02T04:23:00;99280;;;2.9;100.0
68320;BME280;55168;51.120;17.024;2023-02-02T04:24:00;99280;;;2.9;100.0
68320;BME280;55168;51.120;17.024;2023-02-02T04:25:00;99280;;;2.9;100.0
68320;BME280;55168;51.120;17.024;2023-02-02T04:26:00;99280;;;2.9;100.0
68320;BME280;55168;51.120;17.024;2023-02-02T04:27:00;99280;;;3.0;100.0
68320;BME280;55168;51.120;17.024;2023-02-02T04:28:00;99280;;;3.0;100.0
68320;BME280;55168;51.120;17.024;2023-02-02T04:29:00;99280;;;3.0;100.0
68320;BME280;55168;51.120;17.024;2023-02-02T04:30:00;99280;;;3.0;100.0
68320;BME280;55168;51.120;17.024;2023-02-02T04:31:00;99290;;;3.0;100.0
68320;BME280;55168;51.120;17.024;2023-02-02T04:32:00;99290;;;3.0;100.0
68320;BME280;55168;51.120;17.024;2023-02-02T04:33:00;99290;;;3.0;100.0
68320;BME280;55168;51.120;17.024;2023-02-02T04:34:00;99290;;;3.0;100.0
68320;BME280;55168;51.120;17.024;2023-02-02T04:35:00;99280;;;3.0;100.0
68320;BME280;55168;51.120;17.024;2023-02-02T04:36:00;99290;;;3.0;100.0
68320;BME280;55168;51.120;17.024;2023-02-02T04:37:00;99270;;;3.0;100.0
68320;BME280;55168;51.120;17.024;2023-02-02T04:38:00;99280;;;3.0;100.0
68320;BME280;55168;51.120;17.024;2023-02-02T04:39:00;99280;;;3.0;100.0
68320;BME280;55168;51.120;17.024;2023-02-02T04:40:00;99290;;;3.0;100.0
68320;BME280;55168;51.120;17.024;2023-02-02T04:41:04;99280;;;3.0;100.0
68320;BME280;55168;51.120;17.024;2023-02-02T04:42:00;99290;;;3.1;100.0
68320;BME280;55168;51.120;17.024;2023-02-02T04:43:00;99290;;;3.0;100.0
68320;BME280;55168;51.120;17.024;2023-02-02T04:44:00;99280;;;3.0;100.0
68320;BME280;55168;51.120;17.024;2023-02-02T04:45:00;99280;;;3.0;100.0
68320;BME280;55168;51.120;17.024;2023-02-02T04:46:00;99280;;;3.0;100.0
68320;BME280;55168;51.120;17.024;2023-02-02T04:47:00;99280;;;3.0;100.0
68320;BME280;55168;51.120;17.024;2023-02-02T04:48:00;99270;;;3.1;100.0
68320;BME280;55168;51.120;17.024;2023-02-02T04:49:00;99280;;;3.1;100.0
68320;BME280;55168;51.120;17.024;2023-02-02T04:50:00;99270;;;3.1;100.0
68320;BME280;55168;51.120;17.024;2023-02-02T04:51:00;99280;;;3.1;100.0
68320;BME280;55168;51.120;17.024;2023-02-02T04:52:00;99280;;;3.1;100.0
68320;BME280;55168;51.120;17.024;2023-02-02T04:53:00;99280;;;3.1;100.0
68320;BME280;55168;51.120;17.024;2023-02-02T04:54:00;99270;;;3.1;100.0
68320;BME280;55168;51.120;17.024;2023-02-02T04:55:00;99270;;;3.1;100.0
68320;BME280;55168;51.120;17.024;2023-02-02T04:56:04;99270;;;3.1;100.0
68320;BME280;55168;51.120;17.024;2023-02-02T04:57:00;99280;;;3.1;100.0
68320;BME280;55168;51.120;17.024;2023-02-02T04:58:00;99260;;;3.1;100.0
68320;BME280;55168;51.120;17.024;2023-02-02T04:59:00;99270;;;3.2;100.0
68320;BME280;55168;51.120;17.024;2023-02-02T05:00:00;99270;;;3.2;100.0
68320;BME280;55168;51.120;17.024;2023-02-02T05:01:00;99270;;;3.2;100.0
68320;BME280;55168;51.120;17.024;2023-02-02T05:02:00;99260;;;3.2;100.0
68320;BME280;55168;51.120;17.024;2023-02-02T05:03:00;99270;;;3.2;100.0
68320;BME280;55168;51.120;17.024;2023-02-02T05:04:00;99280;;;3.2;100.0
68320;BME280;55168;51.120;17.024;2023-02-02T05:05:00;99280;;;3.2;100.0
68320;BME280;55168;51.120;17.024;2023-02-02T05:06:01;99270;;;3.2;100.0
68320;BME280;55168;51.120;17.024;2023-02-02T05:07:00;99260;;;3.2;100.0
68320;BME280;55168;51.120;17.024;2023-02-02T05:08:00;99270;;;3.2;100.0
68320;BME280;55168;51.120;17.024;2023-02-02T05:09:00;99270;;;3.2;100.0
68320;BME280;55168;51.120;17.024;2023-02-02T05:10:00;99280;;;3.2;100.0
68320;BME280;55168;51.120;17.024;2023-02-02T05:11:04;99270;;;3.2;100.0
68320;BME280;55168;51.120;17.024;2023-02-02T05:12:00;99280;;;3.2;100.0
68320;BME280;55168;51.120;17.024;2023-02-02T05:13:00;99280;;;3.2;100.0
68320;BME280;55168;51.120;17.024;2023-02-02T05:14:00;99280;;;3.2;100.0
68320;BME280;55168;51.120;17.024;2023-02-02T05:15:00;99270;;;3.2;100.0
68320;BME280;55168;51.120;17.024;2023-02-02T05:16:00;99280;;;3.2;100.0
68320;BME280;55168;51.120;17.024;2023-02-02T05:17:00;99270;;;3.2;100.0
68320;BME280;55168;51.120;17.024;2023-02-02T05:18:00;99280;;;3.2;100.0
68320;BME280;55168;51.120;17.024;2023-02-02T05:19:00;99280;;;3.2;100.0
68320;BME280;55168;51.120;17.024;2023-02-02T05:20:00;99270;;;3.2;100.0
68320;BME280;55168;51.120;17.024;2023-02-02T05:21:00;99280;;;3.2;100.0
68320;BME280;55168;51.120;17.024;2023-02-02T05:22:00;99270;;;3.2;100.0
68320;BME280;55168;51.120;17.024;2023-02-02T05:23:00;99270;;;3.2;100.0
68320;BME280;55168;51.120;17.024;2023-02-02T05:24:00;99280;;;3.3;100.0
68320;BME280;55168;51.120;17.024;2023-02-02T05:25:00;99270;;;3.2;100.0
68320;BME280;55168;51.120;17.024;2023-02-02T05:26:00;99270;;;3.2;100.0
68320;BME280;55168;51.120;17.024;2023-02-02T05:27:00;99280;;;3.2;100.0
68320;BME280;55168;51.120;17.024;2023-02-02T05:28:00;99280;;;3.2;100.0
68320;BME280;55168;51.120;17.024;2023-02-02T05:29:00;99280;;;3.2;100.0
68320;BME280;55168;51.120;17.024;2023-02-02T05:30:00;99280;;;3.2;100.0
68320;BME280;55168;51.120;17.024;2023-02-02T05:31:04;99280;;;3.2;100.0
68320;BME280;55168;51.120;17.024;2023-02-02T05:32:00;99280;;;3.2;100.0
68320;BME280;55168;51.120;17.024;2023-02-02T05:33:00;99280;;;3.2;100.0
68320;BME280;55168;51.120;17.024;2023-02-02T05:34:00;99290;;;3.2;100.0
68320;BME280;55168;51.120;17.024;2023-02-02T05:35:00;99290;;;3.2;100.0
68320;BME280;55168;51.120;17.024;2023-02-02T05:36:00;99280;;;3.2;100.0
68320;BME280;55168;51.120;17.024;2023-02-02T05:37:00;99280;;;3.2;100.0
68320;BME280;55168;51.120;17.024;2023-02-02T05:38:00;99280;;;3.2;100.0
68320;BME280;55168;51.120;17.024;2023-02-02T05:39:00;99280;;;3.2;100.0
68320;BME280;55168;51.120;17.024;2023-02-02T05:40:00;99280;;;3.3;100.0
68320;BME280;55168;51.120;17.024;2023-02-02T05:41:00;99290;;;3.3;100.0
68320;BME280;55168;51.120;17.024;2023-02-02T05:42:00;99280;;;3.2;100.0
68320;BME280;55168;51.120;17.024;2023-02-02T05:43:00;99290;;;3.2;100.0
68320;BME280;55168;51.120;17.024;2023-02-02T05:44:00;99290;;;3.3;100.0
68320;BME280;55168;51.120;17.024;2023-02-02T05:45:00;99270;;;3.3;100.0
68320;BME280;55168;51.120;17.024;2023-02-02T05:46:00;99280;;;3.3;100.0
68320;BME280;55168;51.120;17.024;2023-02-02T05:47:00;99290;;;3.3;100.0
68320;BME280;55168;51.120;17.024;2023-02-02T05:48:00;99290;;;3.3;100.0
68320;BME280;55168;51.120;17.024;2023-02-02T05:49:00;99290;;;3.3;100.0
68320;BME280;55168;51.120;17.024;2023-02-02T05:50:00;99290;;;3.3;100.0
68320;BME280;55168;51.120;17.024;2023-02-02T05:52:00;99280;;;3.3;100.0
68320;BME280;55168;51.120;17.024;2023-02-02T05:53:00;99290;;;3.3;100.0